Time;durP1;ratioP1;P1;durP2;ratioP2;P2;SDS_P1;SDS_P2;PMS_P1;PMS_P2;Temp;Humidity;BMP_temperature;BMP_pressure;BME280_temperature;BME280_humidity;BME280_pressure;Samples;Min_cycle;Max_cycle;Signal;HPM_P1;HPM_P2
2024/03/09 00:01:05;;;;;;;42.65;24.23;;;;;;;3.17;100.00;68737.25;5107518;28;20476;-56
2024/03/09 00:03:34;;;;;;;39.80;22.83;;;;;;;3.20;100.00;68742.72;5099789;28;20044;-48
2024/03/09 00:06:06;;;;;;;41.13;24.38;;;;;;;3.16;100.00;68738.69;5092630;28;20449;-56
2024/03/09 00:08:38;;;;;;;43.88;23.92;;;;;;;3.13;100.00;68734.63;5092974;28;20063;-48
2024/03/09 00:11:07;;;;;;;39.17;23.80;;;;;;;3.13;100.00;68732.03;5092404;28;20063;-55
2024/03/09 00:13:37;;;;;;;38.72;22.92;;;;;;;3.11;100.00;68735.47;5103712;28;20512;-46
2024/03/09 00:16:08;;;;;;;42.22;23.40;;;;;;;3.11;100.00;68730.28;5102874;28;20071;-49
2024/03/09 00:18:37;;;;;;;41.33;23.55;;;;;;;3.10;100.00;68729.13;5096723;28;20067;-56
2024/03/09 00:21:13;;;;;;;40.92;23.23;;;;;;;3.06;100.00;68727.06;5104111;28;20040;-54
2024/03/09 00:23:42;;;;;;;43.92;24.75;;;;;;;3.06;100.00;68727.06;5100976;28;20043;-54
2024/03/09 00:26:12;;;;;;;41.28;23.67;;;;;;;3.02;100.00;68722.44;5113179;28;20035;-55
2024/03/09 00:28:40;;;;;;;39.35;22.02;;;;;;;3.00;100.00;68723.28;5111086;28;20484;-55
2024/03/09 00:31:11;;;;;;;41.95;23.48;;;;;;;2.98;100.00;68715.22;5103655;28;20035;-55
2024/03/09 00:33:42;;;;;;;40.72;23.70;;;;;;;2.96;100.00;68712.88;5096777;28;20051;-55
2024/03/09 00:36:11;;;;;;;40.42;23.42;;;;;;;2.96;100.00;68716.06;5103578;28;20047;-54
2024/03/09 00:38:40;;;;;;;43.92;23.63;;;;;;;2.92;100.00;68710.81;5087955;28;20044;-54
2024/03/09 00:41:10;;;;;;;41.72;22.98;;;;;;;2.88;100.00;68702.19;5103194;28;20111;-54
2024/03/09 00:43:44;;;;;;;42.28;23.67;;;;;;;2.83;100.00;68701.53;5093715;28;20039;-54
2024/03/09 00:46:13;;;;;;;42.08;23.38;;;;;;;2.83;100.00;68701.53;5099960;28;20119;-55
2024/03/09 00:48:43;;;;;;;40.83;23.42;;;;;;;2.79;100.00;68696.34;5084797;28;20477;-54
2024/03/09 00:51:12;;;;;;;43.03;23.58;;;;;;;2.76;100.00;68690.84;5094742;28;20047;-55
2024/03/09 00:53:43;;;;;;;45.07;24.90;;;;;;;2.78;100.00;68698.34;5099089;28;20051;-54
2024/03/09 00:56:13;;;;;;;37.35;23.17;;;;;;;2.79;100.00;68693.75;5106770;28;20040;-55
2024/03/09 00:58:42;;;;;;;45.65;23.77;;;;;;;2.74;100.00;68690.53;5099804;28;20388;-55
2024/03/09 01:01:10;;;;;;;40.20;23.77;;;;;;;2.71;100.00;68685.06;5099948;28;20036;-54
2024/03/09 01:03:39;;;;;;;43.47;24.58;;;;;;;2.72;100.00;68680.50;5102374;28;20040;-55
2024/03/09 01:06:09;;;;;;;42.20;23.45;;;;;;;2.73;100.00;68686.78;5107544;28;20414;-56
2024/03/09 01:08:40;;;;;;;45.70;25.33;;;;;;;2.74;100.00;68688.53;5097971;28;20839;-55
2024/03/09 01:11:08;;;;;;;43.42;24.35;;;;;;;2.69;100.00;68687.91;5099845;28;20068;-56
2024/03/09 01:13:38;;;;;;;41.15;22.80;;;;;;;2.64;100.00;68679.53;5103344;28;20120;-56
2024/03/09 01:16:06;;;;;;;42.78;24.15;;;;;;;2.63;100.00;68678.34;5093614;28;20044;-54
2024/03/09 01:18:35;;;;;;;41.25;23.05;;;;;;;2.62;100.00;68677.19;5096423;28;20221;-54
2024/03/09 01:21:03;;;;;;;39.92;21.77;;;;;;;2.58;100.00;68670.56;5112695;28;20040;-54
2024/03/09 01:23:31;;;;;;;43.42;23.23;;;;;;;2.55;100.00;68667.09;5113083;28;20040;-53
2024/03/09 01:26:00;;;;;;;40.63;23.55;;;;;;;2.57;100.00;68674.56;5107953;28;20094;-46
2024/03/09 01:28:28;;;;;;;41.90;24.02;;;;;;;2.54;100.00;68663.94;5101062;28;20056;-47
2024/03/09 01:30:58;;;;;;;44.22;25.17;;;;;;;2.59;100.00;68671.72;5095113;28;20078;-47
2024/03/09 01:33:26;;;;;;;43.75;23.98;;;;;;;2.62;100.00;68677.19;5110076;28;20075;-50
2024/03/09 01:35:54;;;;;;;45.83;24.52;;;;;;;2.57;100.00;68676.56;5087218;28;20032;-48
2024/03/09 01:38:23;;;;;;;43.22;24.35;;;;;;;2.56;100.00;68665.09;5094777;28;20511;-49
2024/03/09 01:40:51;;;;;;;42.35;23.25;;;;;;;2.50;100.00;68666.44;5105237;28;20039;-49
2024/03/09 01:43:20;;;;;;;41.08;23.17;;;;;;;2.48;100.00;68659.56;5105819;28;20055;-45
2024/03/09 01:45:49;;;;;;;40.65;23.10;;;;;;;2.47;100.00;68660.97;5105167;27;20111;-49
2024/03/09 01:48:21;;;;;;;44.55;25.10;;;;;;;2.44;100.00;68654.31;5106173;28;20078;-49
2024/03/09 01:50:50;;;;;;;41.90;24.47;;;;;;;2.49;100.00;68665.28;5105031;28;20048;-48
2024/03/09 01:53:19;;;;;;;41.97;24.35;;;;;;;2.46;100.00;68657.22;5107295;28;20469;-46
2024/03/09 01:55:49;;;;;;;41.60;22.92;;;;;;;2.43;100.00;68653.75;5111652;28;20050;-47
2024/03/09 01:58:19;;;;;;;42.55;23.90;;;;;;;2.44;100.00;68654.31;5100611;28;20046;-48
2024/03/09 02:00:55;;;;;;;38.45;23.10;;;;;;;2.38;100.00;68645.38;5094917;28;20040;-47
2024/03/09 02:03:45;;;;;;;41.50;22.98;;;;;;;2.35;100.00;68647.06;5109444;28;20047;-46
2024/03/09 02:06:13;;;;;;;41.38;23.95;;;;;;;2.33;100.00;68649.88;5100474;28;20560;-45
2024/03/09 02:08:41;;;;;;;42.63;23.17;;;;;;;2.29;100.00;68640.69;5094838;28;20561;-45
2024/03/09 02:11:10;;;;;;;40.22;23.83;;;;;;;2.29;100.00;68637.53;5112953;28;20034;-46
2024/03/09 02:13:43;;;;;;;42.92;24.45;;;;;;;2.24;100.00;68634.31;5104686;28;20047;-45
2024/03/09 02:16:12;;;;;;;45.22;23.88;;;;;;;2.19;100.00;68627.09;5103872;28;20067;-47
2024/03/09 02:18:44;;;;;;;43.92;24.33;;;;;;;2.18;100.00;68625.94;5100942;28;20040;-47
2024/03/09 02:21:14;;;;;;;40.28;23.17;;;;;;;2.20;100.00;68625.09;5107389;28;20032;-48
2024/03/09 02:23:45;;;;;;;45.53;23.88;;;;;;;2.20;100.00;68630.81;5094275;28;20056;-46
2024/03/09 02:26:16;;;;;;;41.03;23.48;;;;;;;2.16;100.00;68626.19;5105988;28;20042;-47
2024/03/09 02:28:57;;;;;;;42.35;22.63;;;;;;;2.13;100.00;68627.88;5104366;27;20043;-46
2024/03/09 02:31:26;;;;;;;40.63;23.27;;;;;;;2.09;100.00;68615.50;5106643;28;20054;-47
2024/03/09 02:33:55;;;;;;;41.35;24.50;;;;;;;2.09;100.00;68618.06;5101934;28;20055;-46
2024/03/09 02:36:24;;;;;;;41.58;23.40;;;;;;;2.07;100.00;68612.59;5092195;28;20135;-48
2024/03/09 02:38:53;;;;;;;42.55;23.63;;;;;;;2.02;100.00;68609.97;5107854;28;20081;-48
2024/03/09 02:41:24;;;;;;;43.42;24.83;;;;;;;2.05;100.00;68618.03;5112483;28;20134;-46
2024/03/09 02:43:56;;;;;;;43.05;23.85;;;;;;;2.01;100.00;68609.38;5096479;28;20052;-49
2024/03/09 02:46:25;;;;;;;45.55;24.40;;;;;;;1.97;100.00;68602.16;5107327;28;20353;-46
2024/03/09 02:48:55;;;;;;;43.72;24.67;;;;;;;1.96;100.00;68603.56;5108325;28;20101;-45
2024/03/09 02:51:25;;;;;;;39.80;24.08;;;;;;;1.96;100.00;68603.00;5096915;28;20047;-47
2024/03/09 02:53:54;;;;;;;43.83;23.80;;;;;;;1.95;100.00;68599.28;5100486;28;20487;-47
2024/03/09 02:56:24;;;;;;;46.58;22.88;;;;;;;1.96;100.00;68601.00;5100618;27;20134;-46
2024/03/09 02:58:52;;;;;;;43.80;24.20;;;;;;;1.94;100.00;68603.28;5089595;28;20106;-47
2024/03/09 03:01:20;;;;;;;40.90;23.63;;;;;;;1.91;100.00;68600.38;5109501;28;20390;-45
2024/03/09 03:03:49;;;;;;;43.47;24.15;;;;;;;1.95;100.00;68601.84;5104423;28;20119;-49
2024/03/09 03:06:19;;;;;;;41.58;24.02;;;;;;;1.95;100.00;68599.28;5093286;28;20046;-47
2024/03/09 03:08:49;;;;;;;41.08;22.85;;;;;;;1.91;100.00;68597.22;5108224;28;20051;-49
2024/03/09 03:11:17;;;;;;;39.08;21.80;;;;;;;1.90;100.00;68596.63;5096237;28;20043;-47
2024/03/09 03:13:51;;;;;;;40.13;22.67;;;;;;;1.91;100.00;68597.22;5106900;28;20089;-48
2024/03/09 03:16:25;;;;;;;40.65;23.25;;;;;;;1.88;100.00;68593.75;5087249;28;20055;-48
2024/03/09 03:18:54;;;;;;;40.33;23.10;;;;;;;1.89;100.00;68598.03;5096107;28;20161;-46
2024/03/09 03:21:23;;;;;;;42.92;24.15;;;;;;;1.85;100.00;68593.41;5096240;28;20082;-48
2024/03/09 03:23:52;;;;;;;42.30;23.58;;;;;;;1.83;100.00;68588.53;5102933;28;20040;-55
2024/03/09 03:26:24;;;;;;;42.00;23.73;;;;;;;1.83;100.00;68589.09;5092966;28;20077;-54
2024/03/09 03:28:53;;;;;;;44.38;24.83;;;;;;;1.86;100.00;68594.56;5108902;28;20039;-53
2024/03/09 03:31:22;;;;;;;44.63;25.00;;;;;;;1.85;100.00;68588.84;5093290;28;20072;-54
2024/03/09 03:33:50;;;;;;;44.45;25.67;;;;;;;1.82;100.00;68590.50;5107720;28;20054;-54
2024/03/09 03:36:20;;;;;;;40.90;24.30;;;;;;;1.82;100.00;68587.38;5107683;28;20055;-54
2024/03/09 03:38:49;;;;;;;44.90;24.10;;;;;;;1.79;100.00;68581.31;5089619;28;20044;-54
2024/03/09 03:41:22;;;;;;;42.00;24.52;;;;;;;1.78;100.00;68583.31;5091333;28;20168;-54
2024/03/09 03:43:52;;;;;;;41.50;23.42;;;;;;;1.77;100.00;68579.59;5098248;28;20119;-55
2024/03/09 03:46:24;;;;;;;40.88;23.02;;;;;;;1.72;100.00;68573.78;5096386;28;20052;-54
2024/03/09 03:48:53;;;;;;;43.13;23.75;;;;;;;1.74;100.00;68578.09;5092491;28;20055;-55
2024/03/09 03:51:21;;;;;;;41.72;24.23;;;;;;;1.70;100.00;68571.47;5092009;28;20107;-55
2024/03/09 03:53:50;;;;;;;40.70;23.58;;;;;;;1.68;100.00;68572.31;5098998;28;20109;-55
2024/03/09 03:56:24;;;;;;;39.85;23.42;;;;;;;1.73;100.00;68572.38;5097954;28;20043;-56
2024/03/09 03:58:53;;;;;;;42.22;24.40;;;;;;;1.73;100.00;68574.94;5087991;28;20039;-53
2024/03/09 04:01:26;;;;;;;44.78;24.10;;;;;;;1.73;100.00;68574.38;5100161;28;20506;-55
2024/03/09 04:03:55;;;;;;;42.65;23.77;;;;;;;1.77;100.00;68582.16;5105167;28;20373;-55
2024/03/09 04:06:23;;;;;;;42.92;23.75;;;;;;;1.79;100.00;68578.75;5100869;28;20403;-53
2024/03/09 04:08:52;;;;;;;36.97;21.95;;;;;;;1.79;100.00;68586.47;5097721;28;20071;-54
2024/03/09 04:11:20;;;;;;;41.90;24.33;;;;;;;1.75;100.00;68577.25;5089245;28;20446;-55
2024/03/09 04:13:49;;;;;;;42.08;23.23;;;;;;;1.78;100.00;68580.72;5091868;28;20127;-55
2024/03/09 04:16:17;;;;;;;42.60;24.05;;;;;;;1.76;100.00;68578.44;5098949;28;20036;-55
2024/03/09 04:18:48;;;;;;;43.50;23.27;;;;;;;1.76;100.00;68578.44;5104463;28;20070;-56
2024/03/09 04:21:18;;;;;;;44.50;25.15;;;;;;;1.77;100.00;68582.16;5098259;28;20050;-56
2024/03/09 04:23:47;;;;;;;40.28;22.52;;;;;;;1.77;100.00;68584.13;5102679;28;20036;-55
2024/03/09 04:26:15;;;;;;;46.40;24.23;;;;;;;1.82;100.00;68585.38;5110522;28;20042;-55
2024/03/09 04:28:44;;;;;;;42.28;23.05;;;;;;;1.82;100.00;68584.78;5108655;28;20043;-56
2024/03/09 04:31:13;;;;;;;44.35;23.35;;;;;;;1.85;100.00;68590.84;5092109;28;20379;-55
2024/03/09 04:33:41;;;;;;;47.63;26.15;;;;;;;1.90;100.00;68594.06;5099992;28;20040;-53
2024/03/09 04:36:12;;;;;;;42.38;24.05;;;;;;;1.88;100.00;68593.75;5092083;28;20036;-54
2024/03/09 04:38:41;;;;;;;40.60;23.60;;;;;;;1.84;100.00;68590.25;5099639;28;20113;-55
2024/03/09 04:41:10;;;;;;;41.10;22.50;;;;;;;1.93;100.00;68604.69;5098456;28;20375;-55
2024/03/09 04:43:40;;;;;;;41.05;22.55;;;;;;;1.96;100.00;68603.56;5099851;28;20510;-54
2024/03/09 04:46:08;;;;;;;42.47;23.27;;;;;;;1.93;100.00;68596.97;5092276;28;20614;-56
2024/03/09 04:48:36;;;;;;;45.05;24.40;;;;;;;1.90;100.00;68596.63;5105852;28;20078;-54
2024/03/09 04:51:06;;;;;;;41.33;21.90;;;;;;;1.95;100.00;68604.41;5094647;28;20039;-55
2024/03/09 04:53:36;;;;;;;41.97;23.65;;;;;;;1.99;100.00;68609.06;5107261;28;20050;-53
2024/03/09 04:56:06;;;;;;;42.28;24.08;;;;;;;1.97;100.00;68604.16;5098658;28;20059;-56
2024/03/09 04:58:35;;;;;;;39.78;21.73;;;;;;;1.97;100.00;68604.75;5096154;28;20044;-55
2024/03/09 05:01:03;;;;;;;41.55;23.15;;;;;;;1.96;100.00;68603.00;5102718;28;20117;-54
2024/03/09 05:03:32;;;;;;;40.05;22.30;;;;;;;1.96;100.00;68600.44;5105581;28;20046;-53
2024/03/09 05:06:00;;;;;;;40.75;23.38;;;;;;;1.99;100.00;68607.06;5103459;28;20051;-55
2024/03/09 05:08:30;;;;;;;42.97;22.67;;;;;;;1.95;100.00;68599.28;5101234;28;20436;-55
2024/03/09 05:11:00;;;;;;;39.17;23.10;;;;;;;1.95;100.00;68604.41;5107782;28;20096;-56
2024/03/09 05:13:31;;;;;;;40.83;23.30;;;;;;;1.96;100.00;68605.59;5112128;28;20427;-54
2024/03/09 05:16:00;;;;;;;39.90;22.15;;;;;;;1.93;100.00;68599.53;5092111;28;20043;-55
2024/03/09 05:18:30;;;;;;;39.35;22.65;;;;;;;2.00;100.00;68607.66;5101294;28;20430;-56
2024/03/09 05:20:58;;;;;;;42.53;22.70;;;;;;;1.94;100.00;68601.28;5109305;28;20039;-54
2024/03/09 05:23:26;;;;;;;40.85;23.23;;;;;;;1.95;100.00;68605.00;5103037;28;20134;-52
2024/03/09 05:25:55;;;;;;;40.67;23.58;;;;;;;1.93;100.00;68594.38;5091204;28;20043;-55
2024/03/09 05:28:25;;;;;;;38.72;22.55;;;;;;;1.93;100.00;68602.09;5105812;28;20044;-54
2024/03/09 05:30:54;;;;;;;37.08;21.73;;;;;;;1.90;100.00;68596.06;5095330;28;20054;-55
2024/03/09 05:33:22;;;;;;;40.85;23.00;;;;;;;1.85;100.00;68591.44;5108590;28;20428;-54
2024/03/09 05:35:52;;;;;;;40.60;22.65;;;;;;;1.89;100.00;68592.31;5112901;28;20051;-56
2024/03/09 05:38:21;;;;;;;40.03;22.52;;;;;;;1.88;100.00;68589.16;5103090;28;20048;-55
2024/03/09 05:40:49;;;;;;;39.03;22.85;;;;;;;1.87;100.00;68593.16;5092849;28;20052;-55
2024/03/09 05:43:17;;;;;;;41.33;22.40;;;;;;;1.82;100.00;68582.22;5100766;28;20214;-52
2024/03/09 05:45:47;;;;;;;41.30;22.25;;;;;;;1.78;100.00;68583.31;5112722;27;20054;-53
2024/03/09 05:48:17;;;;;;;38.90;22.77;;;;;;;1.82;100.00;68587.38;5098060;28;20070;-57
2024/03/09 05:50:45;;;;;;;39.42;21.90;;;;;;;1.81;100.00;68586.81;5112154;28;20506;-55
2024/03/09 05:53:16;;;;;;;40.13;23.38;;;;;;;1.80;100.00;68585.03;5099133;28;20446;-56
2024/03/09 05:55:45;;;;;;;40.10;22.35;;;;;;;1.75;100.00;68579.84;5108341;28;20043;-55
2024/03/09 05:58:13;;;;;;;40.78;22.75;;;;;;;1.74;100.00;68581.25;5097471;28;20048;-54
2024/03/09 06:00:41;;;;;;;38.30;21.83;;;;;;;1.73;100.00;68580.09;5106065;28;20043;-54
2024/03/09 06:03:12;;;;;;;39.22;23.60;;;;;;;1.74;100.00;68575.53;5095079;28;20036;-55
2024/03/09 06:05:42;;;;;;;38.35;22.10;;;;;;;1.72;100.00;68573.78;5098265;28;20123;-54
2024/03/09 06:08:10;;;;;;;40.90;23.13;;;;;;;1.70;100.00;68571.47;5099402;28;20601;-56
2024/03/09 06:10:39;;;;;;;38.45;21.98;;;;;;;1.75;100.00;68574.69;5091299;28;20059;-47
2024/03/09 06:13:18;;;;;;;39.55;22.55;;;;;;;1.69;100.00;68570.91;5090667;28;20036;-49
2024/03/09 06:15:47;;;;;;;37.85;22.23;;;;;;;1.67;100.00;68568.00;5101341;28;20131;-54
2024/03/09 06:18:19;;;;;;;39.38;22.40;;;;;;;1.72;100.00;68573.78;5104375;28;20101;-48
2024/03/09 06:20:47;;;;;;;38.42;21.48;;;;;;;1.71;100.00;68572.06;5089663;28;20039;-46
2024/03/09 06:23:16;;;;;;;39.33;21.92;;;;;;;1.66;100.00;68567.44;5104992;28;20031;-47
2024/03/09 06:25:46;;;;;;;37.65;21.33;;;;;;;1.69;100.00;68573.47;5109963;28;20044;-54
2024/03/09 06:28:14;;;;;;;39.03;22.23;;;;;;;1.71;100.00;68574.63;5094264;28;20044;-56
2024/03/09 06:30:43;;;;;;;40.22;21.15;;;;;;;1.69;100.00;68572.88;5100725;28;20071;-54
2024/03/09 06:33:11;;;;;;;39.92;22.17;;;;;;;1.75;100.00;68574.13;5107146;28;20040;-54
2024/03/09 06:35:41;;;;;;;41.13;22.15;;;;;;;1.75;100.00;68582.41;5099302;28;20530;-55
2024/03/09 06:38:14;;;;;;;40.78;22.35;;;;;;;1.76;100.00;68575.84;5104920;28;20044;-55
2024/03/09 06:40:44;;;;;;;38.25;21.85;;;;;;;1.84;100.00;68590.25;5094009;28;20048;-54
2024/03/09 06:43:14;;;;;;;38.80;21.92;;;;;;;1.83;100.00;68585.97;5090405;28;20035;-56
2024/03/09 06:45:46;;;;;;;38.70;21.88;;;;;;;1.80;100.00;68580.50;5097770;28;20148;-55
2024/03/09 06:48:15;;;;;;;40.28;21.60;;;;;;;1.86;100.00;68589.44;5107580;28;20432;-56
2024/03/09 06:50:45;;;;;;;41.33;22.08;;;;;;;1.91;100.00;68594.63;5100666;28;20131;-54
2024/03/09 06:53:14;;;;;;;36.95;21.17;;;;;;;1.94;100.00;68601.28;5104602;28;20040;-55
2024/03/09 06:55:45;;;;;;;35.95;20.83;;;;;;;2.00;100.00;68605.66;5103744;28;20059;-54
2024/03/09 06:58:13;;;;;;;35.97;20.85;;;;;;;2.05;100.00;68610.88;5108361;28;20047;-53
2024/03/09 07:00:41;;;;;;;38.80;22.20;;;;;;;2.09;100.00;68620.66;5101375;28;20374;-56
2024/03/09 07:03:10;;;;;;;37.58;21.08;;;;;;;2.10;100.00;68619.25;5111790;28;20039;-55
2024/03/09 07:05:38;;;;;;;34.38;21.08;;;;;;;2.14;100.00;68620.72;5103140;28;20112;-54
2024/03/09 07:08:15;;;;;;;35.70;21.15;;;;;;;2.17;100.00;68629.91;5103287;28;20509;-55
2024/03/09 07:10:46;;;;;;;35.88;20.92;;;;;;;2.22;100.00;68629.41;5109695;28;20051;-55
2024/03/09 07:13:18;;;;;;;36.72;20.42;;;;;;;2.32;100.00;68641.00;5089222;28;20527;-53
2024/03/09 07:15:47;;;;;;;37.40;21.27;;;;;;;2.33;100.00;68637.00;5103295;28;20081;-54
2024/03/09 07:18:16;;;;;;;36.58;19.90;;;;;;;2.42;100.00;68654.59;5099207;28;20036;-55
2024/03/09 07:20:44;;;;;;;38.85;21.60;;;;;;;2.45;100.00;68655.50;5105607;28;20125;-56
2024/03/09 07:23:14;;;;;;;33.95;19.58;;;;;;;2.46;100.00;68654.09;5100167;28;20137;-56
2024/03/09 07:25:43;;;;;;;32.88;20.30;;;;;;;2.48;100.00;68664.72;5094574;28;20044;-56
2024/03/09 07:28:13;;;;;;;33.45;20.85;;;;;;;2.49;100.00;68662.72;5093438;28;20471;-56
2024/03/09 07:30:42;;;;;;;35.83;20.73;;;;;;;2.51;100.00;68665.03;5098349;28;20078;-56
2024/03/09 07:33:10;;;;;;;38.88;21.65;;;;;;;2.53;100.00;68670.50;5101908;28;20059;-55
2024/03/09 07:35:39;;;;;;;35.67;21.25;;;;;;;2.68;100.00;68684.16;5103804;28;20039;-55
2024/03/09 07:38:08;;;;;;;35.30;21.58;;;;;;;2.71;100.00;68685.06;5092524;28;20048;-53
2024/03/09 07:40:41;;;;;;;38.55;22.35;;;;;;;2.66;100.00;68682.41;5108150;28;20803;-54
2024/03/09 07:43:13;;;;;;;36.28;20.80;;;;;;;2.71;100.00;68690.22;5110515;28;20039;-57
2024/03/09 07:45:41;;;;;;;37.42;21.50;;;;;;;2.75;100.00;68689.13;5098379;28;20130;-56
2024/03/09 07:48:11;;;;;;;37.40;21.85;;;;;;;2.79;100.00;68694.34;5100686;28;20173;-53
2024/03/09 07:50:40;;;;;;;35.08;20.70;;;;;;;2.81;100.00;68699.25;5093712;28;20099;-56
2024/03/09 07:53:08;;;;;;;36.20;20.23;;;;;;;2.88;100.00;68706.78;5110764;28;20067;-56
2024/03/09 07:55:38;;;;;;;37.05;20.83;;;;;;;2.91;100.00;68707.69;5103366;28;20114;-54
2024/03/09 07:58:06;;;;;;;38.92;20.80;;;;;;;2.98;100.00;68712.63;5107393;28;20058;-55
2024/03/09 08:00:49;;;;;;;;;;;;;;;3.02;100.00;68725.00;5087891;28;20039;-55
2024/03/09 08:03:20;;;;;;;32.47;18.60;;;;;;;3.08;100.00;68731.97;5099881;28;19938;-55
2024/03/09 08:05:49;;;;;;;38.30;21.33;;;;;;;3.15;100.00;68734.94;5101862;28;20096;-56
2024/03/09 08:08:17;;;;;;;33.40;18.65;;;;;;;3.17;100.00;68742.41;5099503;28;20153;-55
2024/03/09 08:10:52;;;;;;;35.47;20.90;;;;;;;3.21;100.00;68739.31;5087623;28;20067;-56
2024/03/09 08:13:22;;;;;;;36.50;21.48;;;;;;;3.25;100.00;68747.97;5095198;28;20043;-54
2024/03/09 08:15:53;;;;;;;32.55;20.85;;;;;;;3.28;100.00;68748.84;5110847;28;20402;-55
2024/03/09 08:18:25;;;;;;;33.17;20.35;;;;;;;3.34;100.00;68760.97;5094026;28;20118;-56
2024/03/09 08:20:53;;;;;;;33.95;20.50;;;;;;;3.51;100.00;68775.53;5103369;28;20462;-56
2024/03/09 08:23:23;;;;;;;37.97;20.08;;;;;;;3.53;100.00;68777.28;5098147;28;20521;-54
2024/03/09 08:25:53;;;;;;;31.73;18.95;;;;;;;3.58;100.00;68785.09;5087760;28;20047;-57
2024/03/09 08:28:22;;;;;;;33.33;20.10;;;;;;;3.67;100.00;68790.94;5103120;28;20055;-56
2024/03/09 08:30:50;;;;;;;32.58;19.50;;;;;;;3.73;100.00;68802.50;5101881;28;20032;-56
2024/03/09 08:33:22;;;;;;;;;;;;;;;3.82;100.00;68812.94;5103782;28;20051;-55
2024/03/09 08:35:55;;;;;;;33.22;19.10;;;;;;;3.95;100.00;68821.69;5100139;28;19928;-55
2024/03/09 08:38:24;;;;;;;31.77;19.00;;;;;;;4.05;100.00;68838.50;5097274;28;20060;-55
2024/03/09 08:40:54;;;;;;;33.22;18.10;;;;;;;4.07;100.00;68840.78;5103529;28;20097;-56
2024/03/09 08:43:25;;;;;;;32.42;19.25;;;;;;;4.15;100.00;68850.09;5100527;28;20510;-55
2024/03/09 08:45:53;;;;;;;30.23;18.40;;;;;;;4.20;100.00;68853.31;5103756;28;20047;-55
2024/03/09 08:48:22;;;;;;;29.50;18.35;;;;;;;4.29;100.00;68858.00;5103808;28;20737;-55
2024/03/09 08:50:50;;;;;;;32.80;18.85;;;;;;;4.34;100.00;68868.97;5103947;28;20052;-56
2024/03/09 08:53:19;;;;;;;31.50;17.85;;;;;;;4.46;100.00;68882.34;5109883;27;20118;-56
2024/03/09 08:55:47;;;;;;;33.33;19.27;;;;;;;4.49;100.00;68885.81;5102698;28;20040;-55
2024/03/09 08:58:17;;;;;;;32.22;18.33;;;;;;;4.62;100.00;68897.78;5111890;28;20044;-54
2024/03/09 09:00:46;;;;;;;28.50;18.00;;;;;;;4.86;100.00;68930.22;5103451;28;20083;-56
2024/03/09 09:03:17;;;;;;;31.88;18.50;;;;;;;5.03;100.00;68948.81;5102879;28;20130;-56
2024/03/09 09:05:46;;;;;;;32.65;18.42;;;;;;;5.23;100.00;68969.47;5101584;28;20047;-56
2024/03/09 09:08:24;;;;;;;33.63;19.33;;;;;;;5.33;100.00;68979.91;5097857;28;20042;-56
2024/03/09 09:10:54;;;;;;;31.45;18.30;;;;;;;5.42;100.00;68987.81;5094573;28;20507;-57
2024/03/09 09:13:27;;;;;;;31.55;18.17;;;;;;;5.47;100.00;68998.19;5097839;28;20526;-56
2024/03/09 09:15:58;;;;;;;29.00;18.40;;;;;;;5.53;100.00;69007.78;5105955;28;20032;-57
2024/03/09 09:18:26;;;;;;;29.15;17.63;;;;;;;5.68;100.00;69024.63;5108494;28;20083;-57
2024/03/09 09:20:57;;;;;;;28.17;18.20;;;;;;;5.93;100.00;69045.34;5099603;28;20429;-57
2024/03/09 09:23:25;;;;;;;26.65;17.33;;;;;;;6.24;100.00;69085.44;5102958;28;20546;-55
2024/03/09 09:25:54;;;;;;;26.40;16.70;;;;;;;6.52;100.00;69116.84;5103311;28;20416;-57
2024/03/09 09:28:25;;;;;;;28.00;17.67;;;;;;;6.75;100.00;69143.59;5087345;28;20139;-56
2024/03/09 09:30:54;;;;;;;27.08;17.02;;;;;;;6.90;100.00;69163.06;5102568;28;20044;-57
2024/03/09 09:33:23;;;;;;;27.67;17.38;;;;;;;7.08;100.00;69175.06;5106162;28;20090;-57
2024/03/09 09:35:52;;;;;;;27.70;16.92;;;;;;;7.17;100.00;69184.97;5113410;28;20041;-57
2024/03/09 09:38:21;;;;;;;28.73;17.17;;;;;;;7.45;100.00;69222.16;5102978;28;20060;-56
2024/03/09 09:40:50;;;;;;;30.80;18.88;;;;;;;7.58;100.00;69234.13;5101138;28;20032;-56
2024/03/09 09:43:19;;;;;;;26.02;16.83;;;;;;;7.77;100.00;69256.25;5098171;28;20058;-57
2024/03/09 09:45:51;;;;;;;26.15;16.60;;;;;;;8.05;100.00;69284.53;5107140;28;20044;-56
2024/03/09 09:48:21;;;;;;;26.30;17.10;;;;;;;8.35;100.00;69318.88;5091742;28;20139;-57
2024/03/09 09:50:52;;;;;;;26.17;16.52;;;;;;;8.58;100.00;69345.13;5089418;28;20041;-57
2024/03/09 09:53:22;;;;;;;26.30;16.30;;;;;;;8.76;100.00;69370.13;5094100;28;20044;-57
2024/03/09 09:55:51;;;;;;;28.75;17.10;;;;;;;9.00;100.00;69394.34;5096667;28;20109;-57
2024/03/09 09:58:20;;;;;;;26.70;17.48;;;;;;;9.19;100.00;69413.28;5107411;28;20416;-57
2024/03/09 10:00:53;;;;;;;25.45;16.40;;;;;;;9.41;100.00;69438.38;5108533;28;20040;-59
2024/03/09 10:03:22;;;;;;;25.60;16.48;;;;;;;9.57;100.00;69456.44;5096753;28;20044;-57
2024/03/09 10:05:50;;;;;;;26.88;17.15;;;;;;;9.89;100.00;69495.78;5107395;28;20491;-58
2024/03/09 10:08:20;;;;;;;26.50;16.67;;;;;;;10.04;100.00;69514.75;5095811;28;20072;-56
2024/03/09 10:10:49;;;;;;;24.17;15.85;;;;;;;10.18;100.00;69525.84;5113294;28;20126;-57
2024/03/09 10:13:18;;;;;;;24.98;16.88;;;;;;;10.28;100.00;69539.53;5111633;28;20042;-57
2024/03/09 10:15:49;;;;;;;25.92;16.27;;;;;;;10.49;100.00;69563.50;5107554;28;20067;-57
2024/03/09 10:18:19;;;;;;;25.48;16.50;;;;;;;10.81;100.00;69602.28;5109870;28;20051;-58
2024/03/09 10:20:49;;;;;;;23.38;16.60;;;;;;;10.98;100.00;69614.28;5102015;28;20040;-57
2024/03/09 10:23:19;;;;;;;24.25;16.02;;;;;;;11.11;100.00;69631.50;5108555;28;20040;-57
2024/03/09 10:25:48;;;;;;;24.23;16.55;;;;;;;11.27;100.00;69649.59;5095895;28;20044;-57
2024/03/09 10:28:18;;;;;;;24.05;16.48;;;;;;;11.47;100.00;69672.38;5100051;28;20040;-57
2024/03/09 10:30:47;;;;;;;24.17;15.95;;;;;;;11.89;100.00;69722.31;5105540;28;20028;-50
2024/03/09 10:33:17;;;;;;;22.88;15.82;;;;;;;12.04;100.00;69736.66;5103441;28;20036;-48
2024/03/09 10:35:48;;;;;;;30.20;16.80;;;;;;;12.39;100.00;69778.41;5086439;28;20552;-51
2024/03/09 10:38:20;;;;;;;24.45;15.52;;;;;;;12.36;100.00;69777.53;5109593;27;20123;-47
2024/03/09 10:40:51;;;;;;;24.17;15.55;;;;;;;12.46;100.00;69789.81;5105417;28;20048;-59
2024/03/09 10:43:21;;;;;;;22.30;15.45;;;;;;;12.87;100.00;69830.75;5087869;28;20067;-58
2024/03/09 10:45:54;;;;;;;23.20;16.00;;;;;;;12.97;98.82;69841.84;5101661;28;20039;-58
2024/03/09 10:48:26;;;;;;;23.20;15.85;;;;;;;12.98;93.72;69843.03;5096452;28;20057;-58
2024/03/09 10:51:07;;;;;;;26.07;15.60;;;;;;;13.12;96.79;69861.44;5101036;28;21028;-59
2024/03/09 10:53:46;;;;;;;25.20;15.23;;;;;;;13.48;97.42;69899.75;5100655;28;20487;-58
2024/03/09 10:56:21;;;;;;;23.40;14.35;;;;;;;13.81;94.55;69934.56;5089305;28;20071;-57
2024/03/09 10:58:52;;;;;;;26.67;15.80;;;;;;;13.94;90.51;69951.81;5083009;28;20578;-55
2024/03/09 11:01:23;;;;;;;22.10;16.00;;;;;;;13.78;88.78;69933.69;5093408;28;20449;-57
2024/03/09 11:03:54;;;;;;;22.23;15.05;;;;;;;13.60;90.49;69913.22;5103996;28;20439;-58
2024/03/09 11:06:23;;;;;;;22.92;16.13;;;;;;;13.37;90.83;69884.28;5103777;28;20044;-56
2024/03/09 11:08:54;;;;;;;22.95;15.35;;;;;;;13.60;91.59;69913.22;5085729;28;20051;-56
2024/03/09 11:11:24;;;;;;;27.05;16.77;;;;;;;13.81;95.28;69937.19;5100668;28;20491;-57
2024/03/09 11:13:54;;;;;;;23.90;15.82;;;;;;;13.76;93.94;69936.59;5111711;28;20036;-57
2024/03/09 11:16:24;;;;;;;25.40;17.25;;;;;;;13.76;91.21;69928.72;5111649;28;20039;-51
2024/03/09 11:18:56;;;;;;;29.73;20.50;;;;;;;13.88;90.42;69944.78;5101226;28;20467;-57
2024/03/09 11:21:29;;;;;;;26.40;19.70;;;;;;;13.95;92.51;69950.94;5101778;28;20486;-55
2024/03/09 11:24:00;;;;;;;23.75;17.58;;;;;;;14.21;90.52;69985.47;5086282;28;20040;-53
2024/03/09 11:26:32;;;;;;;33.65;17.42;;;;;;;14.19;88.93;69985.72;5099807;28;20131;-54
2024/03/09 11:29:01;;;;;;;24.27;16.80;;;;;;;13.88;90.63;69940.16;5090630;28;20058;-53